Flight Track Log - Related Links

Times and Time Zones

All times are in EDT time to prevent confusion due to time zone crossing. See the EJA116 flight status page for this flight to view local times or setup timezone preferences in your user account.

Time Position Orientation Groundspeed Altitude Reporting Facility
EDT Latitude Longitude Course Direction KTS MPH feet Rate Location/Type
Sun 06:02:20 PM 39.7000 -86.3000 201° Southwest 141 162 1,400  Level Indianapolis TRACON
Sun 06:03:44 PM 39.6333 -86.3333 201° Southwest 226 260 6,400 3,333 Climbing Indianapolis TRACON
Sun 06:05:11 PM 39.5922 -86.2578 125° Southeast 270 311 10,900 2,376 Climbing Indianapolis Center
Sun 06:06:13 PM 39.6239 -86.1458 70° East 334 384 12,300 1,452 Climbing Indianapolis Center
Sun 06:07:15 PM 39.6628 -86.0231 68° East 371 427 13,900 1,306 Climbing Indianapolis Center
Sun 06:08:17 PM 39.7150 -85.8678 66° East 396 456 15,000 532 Climbing Indianapolis Center
Sun 06:09:19 PM 39.7589 -85.7297 67° East 414 476 15,000  Level Indianapolis Center
Sun 06:10:21 PM 39.8042 -85.5903 67° East 421 484 15,000  Level Indianapolis Center
Sun 06:11:23 PM 39.8486 -85.4525 67° East 416 479 15,000  Level Indianapolis Center
Sun 06:12:25 PM 39.8933 -85.3142 67° East 417 480 15,000  Level Indianapolis Center
Sun 06:13:27 PM 39.9367 -85.1764 68° East 415 478 15,000  Level Indianapolis Center
Sun 06:14:29 PM 39.9908 -85.0056 67° East 424 488 15,000  Level Indianapolis Center
Sun 06:15:31 PM 40.0378 -84.8547 68° East 426 490 15,000  Level Indianapolis Center
Sun 06:16:33 PM 40.0825 -84.7103 68° East 427 491 15,000  Level Indianapolis Center
Sun 06:18:37 PM 40.1744 -84.4186 68° East 430 495 15,000  Level Indianapolis Center
Sun 06:19:40 PM 40.2194 -84.2722 68° East 429 494 15,000  Level Indianapolis Center
Sun 06:20:42 PM 40.2633 -84.1247 69° East 430 495 15,000  Level Indianapolis Center
Sun 06:21:44 PM 40.3031 -83.9733 71° East 434 499 15,000  Level Indianapolis Center
Sun 06:22:46 PM 40.3331 -83.8169 76° East 436 502 15,000 -532 Level Indianapolis Center
Sun 06:23:48 PM 40.3686 -83.6364 75° East 432 497 13,900 -1,500 Descending Indianapolis Center
Sun 06:24:50 PM 40.3972 -83.4908 75° East 410 472 11,900 -1,548 Descending Indianapolis Center
Sun 06:25:52 PM 40.3706 -83.3653 106° East 384 442 10,700 -919 Descending Indianapolis Center
Sun 06:26:54 PM 40.3061 -83.2658 130° Southeast 357 411 10,000 -339 Descending Indianapolis Center
Sun 06:27:56 PM 40.2428 -83.1675 130° Southeast 350 403 10,000 -581 Level Indianapolis Center
Sun 06:28:58 PM 40.1814 -83.0767 131° Southeast 334 384 8,800 -1,839 Descending Indianapolis Center
Sun 06:30:00 PM 40.1292 -82.9997 132° Southeast 292 336 6,200 -1,355 Descending Indianapolis Center
Sun 06:31:02 PM 40.1042 -82.9050 109° East 284 327 6,000 -387 Descending Indianapolis Center
Sun 06:32:04 PM 40.1006 -82.8019 93° East 282 325 5,400 -1,403 Descending Indianapolis Center
Sun 06:33:06 PM 40.0647 -82.7239 121° Southeast 260 299 3,100 -1,161 Descending Indianapolis Center
Sun 06:34:08 PM 40.0147 -82.7478 200° South 212 244 3,000 -435 Descending Indianapolis Center
Sun 06:35:10 PM 39.9997 -82.7961 248° West 170 196 2,200 -762 Descending Indianapolis Center
Sun 06:36:14 PM 39.9997 -82.8467 270° West 122 140 1,400 -484 Descending Indianapolis Center
Sun 06:37:14 PM 40.0000 -82.8911 270° West 134 154 1,200 -200 Descending Indianapolis Center

Login

Don't have an account? Register now (free) for customized features, flight alerts, and more!